Time;durP1;ratioP1;P1;durP2;ratioP2;P2;SDS_P1;SDS_P2;PMS_P1;PMS_P2;Temp;Humidity;BMP_temperature;BMP_pressure;BME280_temperature;BME280_humidity;BME280_pressure;Samples;Min_cycle;Max_cycle;Signal;HPM_P1;HPM_P2
2023/06/05 00:00:42;;;;;;;10.13;6.20;;;13.50;99.90;;;;;;4946797;28;20031;-72
2023/06/05 00:03:08;;;;;;;12.35;6.68;;;13.50;99.90;;;;;;4950663;29;20034;-73
2023/06/05 00:05:34;;;;;;;8.88;6.40;;;13.50;99.90;;;;;;4954708;29;20023;-72
2023/06/05 00:07:59;;;;;;;15.90;6.80;;;13.50;99.90;;;;;;4945408;29;20508;-73
2023/06/05 00:10:25;;;;;;;9.95;6.88;;;13.40;99.90;;;;;;4950116;29;20411;-71
2023/06/05 00:12:50;;;;;;;9.25;5.95;;;13.40;99.90;;;;;;4954614;28;20024;-72
2023/06/05 00:15:17;;;;;;;11.50;6.55;;;13.40;99.90;;;;;;4948633;29;20027;-73
2023/06/05 00:17:44;;;;;;;11.02;7.03;;;13.40;99.90;;;;;;4943347;29;20043;-73
2023/06/05 00:20:10;;;;;;;12.27;6.88;;;13.40;99.90;;;;;;4952183;29;20078;-73
2023/06/05 00:22:36;;;;;;;11.15;7.22;;;13.30;99.90;;;;;;4951252;29;20027;-73
2023/06/05 00:25:01;;;;;;;12.55;7.25;;;13.30;99.90;;;;;;4953025;28;20495;-73
2023/06/05 00:27:30;;;;;;;11.30;6.85;;;13.30;99.90;;;;;;4952235;28;20027;-73
2023/06/05 00:29:56;;;;;;;13.23;7.63;;;13.30;99.90;;;;;;4952190;28;20034;-73
2023/06/05 00:32:22;;;;;;;11.68;8.00;;;13.30;99.90;;;;;;4957372;28;20019;-73
2023/06/05 00:34:49;;;;;;;11.45;7.25;;;13.20;99.90;;;;;;4950533;29;20027;-73
2023/06/05 00:37:15;;;;;;;13.38;7.22;;;13.20;99.90;;;;;;4953602;29;20422;-73
2023/06/05 00:39:41;;;;;;;12.65;7.40;;;13.20;99.90;;;;;;4941163;29;20027;-73
2023/06/05 00:42:10;;;;;;;12.00;6.95;;;13.20;99.90;;;;;;4941744;29;20107;-73
2023/06/05 00:44:37;;;;;;;13.73;7.53;;;13.20;99.90;;;;;;4942962;28;20063;-73
2023/06/05 00:47:04;;;;;;;10.35;7.38;;;13.20;99.90;;;;;;4947970;29;20027;-73
2023/06/05 00:49:30;;;;;;;13.20;7.85;;;13.10;99.90;;;;;;4944625;28;20040;-73
2023/06/05 00:51:57;;;;;;;12.18;7.50;;;13.10;99.90;;;;;;4956524;28;20031;-73
2023/06/05 00:54:23;;;;;;;13.95;7.78;;;13.10;99.90;;;;;;4956272;28;20024;-73
2023/06/05 00:56:52;;;;;;;13.70;7.88;;;13.00;99.90;;;;;;4953031;28;20365;-73
2023/06/05 00:59:18;;;;;;;12.40;7.75;;;13.00;99.90;;;;;;4955825;28;20286;-72
2023/06/05 01:01:45;;;;;;;12.63;7.43;;;13.00;99.90;;;;;;4949819;29;20514;-72
2023/06/05 01:04:11;;;;;;;12.68;7.70;;;13.00;99.90;;;;;;4955988;28;20057;-73
2023/06/05 01:06:40;;;;;;;11.82;7.68;;;13.00;99.90;;;;;;4954711;29;20475;-72
2023/06/05 01:09:08;;;;;;;16.33;8.15;;;13.00;99.90;;;;;;4952996;28;20055;-72
2023/06/05 01:12:11;;;;;;;12.90;8.20;;;13.00;99.90;;;;;;4951821;29;20652;-72
2023/06/05 01:14:40;;;;;;;16.30;9.13;;;13.00;99.90;;;;;;4957395;29;20026;-73
2023/06/05 01:17:08;;;;;;;11.10;7.90;;;13.00;99.90;;;;;;4956131;28;20506;-73
2023/06/05 01:19:34;;;;;;;16.38;8.75;;;12.90;99.90;;;;;;4950675;28;20028;-73
2023/06/05 01:22:01;;;;;;;13.25;8.52;;;12.90;99.90;;;;;;4946248;29;20352;-73
2023/06/05 01:24:30;;;;;;;15.32;8.32;;;12.90;99.90;;;;;;4950991;28;20020;-73
2023/06/05 01:27:00;;;;;;;11.70;7.85;;;12.80;99.90;;;;;;4957174;28;20034;-73
2023/06/05 01:29:35;;;;;;;14.48;8.93;;;12.80;99.90;;;;;;4949558;29;20118;-73
2023/06/05 01:32:12;;;;;;;14.38;8.88;;;12.80;99.90;;;;;;4957803;29;20027;-71
2023/06/05 01:34:43;;;;;;;14.02;8.07;;;12.80;99.90;;;;;;4952922;28;20043;-73
2023/06/05 01:37:12;;;;;;;15.13;8.65;;;12.80;99.90;;;;;;4951404;29;20043;-73
2023/06/05 01:39:39;;;;;;;12.60;8.23;;;12.80;99.90;;;;;;4955837;28;20061;-73
2023/06/05 01:42:06;;;;;;;15.25;8.77;;;12.80;99.90;;;;;;4951970;28;20649;-73
2023/06/05 01:44:32;;;;;;;14.27;8.70;;;12.80;99.90;;;;;;4940957;29;20024;-73
2023/06/05 01:46:59;;;;;;;16.20;9.52;;;12.80;99.90;;;;;;4947532;28;20031;-73
2023/06/05 01:49:25;;;;;;;12.68;8.27;;;12.80;99.90;;;;;;4941872;29;20030;-73
2023/06/05 01:51:51;;;;;;;16.08;9.07;;;12.80;99.90;;;;;;4938002;29;20031;-73
2023/06/05 01:54:18;;;;;;;12.25;8.63;;;12.80;99.90;;;;;;4952370;29;20034;-73
2023/06/05 01:56:44;;;;;;;14.55;8.45;;;12.70;99.90;;;;;;4949858;28;20170;-73
2023/06/05 01:59:09;;;;;;;13.35;8.75;;;12.70;99.90;;;;;;4945974;28;20119;-73
2023/06/05 02:01:35;;;;;;;15.20;8.80;;;12.70;99.90;;;;;;4955718;28;20038;-73
2023/06/05 02:04:05;;;;;;;16.90;9.55;;;12.60;99.90;;;;;;4948289;29;20018;-73
2023/06/05 02:06:41;;;;;;;11.73;8.50;;;12.60;99.90;;;;;;4953544;29;20063;-73
2023/06/05 02:09:08;;;;;;;12.60;7.75;;;12.60;99.90;;;;;;4942352;28;20039;-73
2023/06/05 02:11:37;;;;;;;15.90;9.07;;;12.60;99.90;;;;;;4948128;28;20038;-73
2023/06/05 02:14:12;;;;;;;15.30;8.77;;;12.60;99.90;;;;;;4947599;29;20380;-73
2023/06/05 02:16:39;;;;;;;15.77;8.85;;;12.50;99.90;;;;;;4944500;29;20023;-73
2023/06/05 02:19:06;;;;;;;13.05;8.63;;;12.50;99.90;;;;;;4945466;29;20110;-73
2023/06/05 02:21:33;;;;;;;17.23;9.40;;;12.50;99.90;;;;;;4954186;28;20475;-73
2023/06/05 02:24:02;;;;;;;13.85;8.48;;;12.50;99.90;;;;;;4942450;28;20023;-73
2023/06/05 02:26:28;;;;;;;16.70;9.45;;;12.50;99.90;;;;;;4945724;28;20034;-74
2023/06/05 02:28:54;;;;;;;14.30;8.98;;;12.40;99.90;;;;;;4938941;29;20378;-73
2023/06/05 02:31:25;;;;;;;15.45;8.88;;;12.40;99.90;;;;;;4951157;29;20387;-74
2023/06/05 02:33:52;;;;;;;14.55;9.27;;;12.40;99.90;;;;;;4955020;28;20038;-73
2023/06/05 02:36:18;;;;;;;12.88;8.75;;;12.40;99.90;;;;;;4956838;28;20671;-73
2023/06/05 02:38:44;;;;;;;14.60;8.43;;;12.40;99.90;;;;;;4950912;28;20090;-73
2023/06/05 02:41:11;;;;;;;14.55;8.40;;;12.40;99.90;;;;;;4951840;29;20047;-73
2023/06/05 02:43:36;;;;;;;16.65;8.93;;;12.30;99.90;;;;;;4955757;28;20102;-73
2023/06/05 02:46:02;;;;;;;19.75;9.18;;;12.30;99.90;;;;;;4954642;29;19999;-73
2023/06/05 02:48:27;;;;;;;14.88;9.43;;;12.20;99.90;;;;;;4945451;29;20107;-73
2023/06/05 02:50:53;;;;;;;14.65;8.93;;;12.30;99.90;;;;;;4941271;29;20028;-72
2023/06/05 02:53:20;;;;;;;14.05;8.98;;;12.20;99.90;;;;;;4949620;28;20016;-73
2023/06/05 02:55:46;;;;;;;13.05;8.60;;;12.30;99.90;;;;;;4943271;29;20035;-73
2023/06/05 02:58:12;;;;;;;12.23;8.45;;;12.20;99.90;;;;;;4954589;29;20077;-73
2023/06/05 03:00:39;;;;;;;12.98;8.73;;;12.20;99.90;;;;;;4953011;28;20035;-73
2023/06/05 03:03:06;;;;;;;15.30;9.15;;;12.20;99.90;;;;;;4954600;28;20089;-73
2023/06/05 03:05:33;;;;;;;15.50;8.95;;;12.20;99.90;;;;;;4952871;28;20370;-72
2023/06/05 03:08:01;;;;;;;14.77;8.88;;;12.20;99.90;;;;;;4946187;29;20024;-72
2023/06/05 03:10:27;;;;;;;17.00;9.40;;;12.20;99.90;;;;;;4954353;28;20047;-72
2023/06/05 03:12:53;;;;;;;15.32;9.65;;;12.20;99.90;;;;;;4953707;28;20011;-73
2023/06/05 03:15:19;;;;;;;14.68;9.30;;;12.10;99.90;;;;;;4947655;29;20043;-74
2023/06/05 03:17:45;;;;;;;16.95;9.00;;;12.10;99.90;;;;;;4950292;29;20430;-73
2023/06/05 03:20:12;;;;;;;16.52;9.40;;;12.00;99.90;;;;;;4954432;28;20432;-73
2023/06/05 03:22:39;;;;;;;15.52;9.50;;;12.00;99.90;;;;;;4952757;29;20074;-73
2023/06/05 03:25:05;;;;;;;15.65;9.10;;;12.00;99.90;;;;;;4953746;28;20422;-73
2023/06/05 03:27:31;;;;;;;18.20;10.30;;;12.00;99.90;;;;;;4955520;28;20034;-73
2023/06/05 03:29:58;;;;;;;14.98;9.27;;;12.00;99.90;;;;;;4954424;29;20031;-74
2023/06/05 03:32:24;;;;;;;14.80;9.82;;;12.00;99.90;;;;;;4953793;29;20042;-73
2023/06/05 03:34:50;;;;;;;17.55;10.27;;;12.00;99.90;;;;;;4953646;28;20031;-73
2023/06/05 03:37:22;;;;;;;15.93;9.80;;;12.00;99.90;;;;;;4949429;28;20035;-73
2023/06/05 03:39:47;;;;;;;17.20;9.93;;;12.00;99.90;;;;;;4954771;29;20074;-73
2023/06/05 03:42:13;;;;;;;17.05;10.00;;;11.90;99.90;;;;;;4954289;28;20081;-73
2023/06/05 03:44:39;;;;;;;15.57;9.75;;;11.90;99.90;;;;;;4955075;29;20039;-73
2023/06/05 03:47:06;;;;;;;15.35;10.18;;;11.90;99.90;;;;;;4955254;29;20110;-73
2023/06/05 03:49:31;;;;;;;16.98;10.20;;;11.90;99.90;;;;;;4942684;28;20522;-74
2023/06/05 03:52:00;;;;;;;14.82;10.18;;;11.90;99.90;;;;;;4953753;29;20094;-74
2023/06/05 03:54:27;;;;;;;15.75;10.05;;;11.90;99.90;;;;;;4953737;29;20486;-73
2023/06/05 03:56:55;;;;;;;15.57;9.93;;;11.90;99.90;;;;;;4951996;28;20031;-73
2023/06/05 03:59:22;;;;;;;18.33;10.55;;;11.90;99.90;;;;;;4947552;28;20070;-72
2023/06/05 04:01:48;;;;;;;18.02;10.18;;;11.80;99.90;;;;;;4943311;28;20071;-73
2023/06/05 04:04:14;;;;;;;27.10;17.45;;;11.90;99.90;;;;;;4946780;28;20031;-73
2023/06/05 04:06:43;;;;;;;14.50;10.23;;;11.90;99.90;;;;;;4953997;28;20463;-73
2023/06/05 04:09:12;;;;;;;15.77;10.20;;;11.90;99.90;;;;;;4953697;29;20525;-73
2023/06/05 04:11:42;;;;;;;15.50;9.85;;;11.90;99.90;;;;;;4946019;29;20023;-74
2023/06/05 04:14:09;;;;;;;17.20;10.30;;;11.80;99.90;;;;;;4945530;29;20435;-73
2023/06/05 04:16:38;;;;;;;18.40;10.65;;;11.80;99.90;;;;;;4953508;28;20390;-73
2023/06/05 04:19:07;;;;;;;18.70;10.52;;;11.80;99.90;;;;;;4953562;28;20031;-73
2023/06/05 04:21:37;;;;;;;16.13;11.18;;;11.80;99.90;;;;;;4941118;29;20031;-73
2023/06/05 04:24:06;;;;;;;17.95;11.25;;;11.80;99.90;;;;;;4944192;29;20024;-72
2023/06/05 04:26:36;;;;;;;20.08;10.88;;;11.80;99.90;;;;;;4950188;29;20063;-73
2023/06/05 04:29:03;;;;;;;18.08;11.30;;;11.80;99.90;;;;;;4954335;29;20525;-73
2023/06/05 04:31:34;;;;;;;18.23;11.10;;;11.80;99.90;;;;;;4951192;28;20058;-73
2023/06/05 04:34:01;;;;;;;22.15;11.02;;;11.90;99.90;;;;;;4950042;28;20426;-73
2023/06/05 04:36:28;;;;;;;21.98;11.40;;;11.90;99.90;;;;;;4946466;28;20035;-73
2023/06/05 04:38:54;;;;;;;20.83;11.38;;;11.90;99.90;;;;;;4947025;29;20032;-73
2023/06/05 04:41:21;;;;;;;19.10;11.63;;;11.80;99.90;;;;;;4951145;28;20403;-73
2023/06/05 04:43:47;;;;;;;20.27;11.52;;;11.90;99.90;;;;;;4942486;29;20047;-73
2023/06/05 04:46:13;;;;;;;16.92;10.30;;;11.90;99.90;;;;;;4953041;29;20383;-72
2023/06/05 04:48:39;;;;;;;18.33;11.10;;;11.90;99.90;;;;;;4951630;28;20023;-73
2023/06/05 04:51:04;;;;;;;16.70;10.35;;;12.00;99.90;;;;;;4951062;29;20027;-74
2023/06/05 04:53:31;;;;;;;18.65;10.50;;;12.00;99.90;;;;;;4952871;29;20023;-73
2023/06/05 04:55:59;;;;;;;16.92;10.00;;;12.00;99.90;;;;;;4953870;29;20487;-73
2023/06/05 04:58:25;;;;;;;15.30;9.85;;;12.00;99.90;;;;;;4949660;28;20027;-74
2023/06/05 05:00:50;;;;;;;13.57;9.55;;;12.00;99.90;;;;;;4953954;29;20549;-73
2023/06/05 05:03:17;;;;;;;14.55;9.30;;;12.00;99.90;;;;;;4952008;28;20024;-74
2023/06/05 05:05:43;;;;;;;15.38;9.98;;;12.10;99.90;;;;;;4953729;29;20078;-73
2023/06/05 05:08:08;;;;;;;19.02;10.48;;;12.10;99.90;;;;;;4940041;28;20028;-73
2023/06/05 05:10:34;;;;;;;16.88;9.57;;;12.10;99.90;;;;;;4954565;29;20007;-73
2023/06/05 05:13:01;;;;;;;14.70;9.82;;;12.20;99.90;;;;;;4942464;29;20094;-73
2023/06/05 05:15:28;;;;;;;15.93;10.52;;;12.20;99.90;;;;;;4954471;28;20039;-73
2023/06/05 05:17:55;;;;;;;16.15;9.93;;;12.20;99.90;;;;;;4954025;29;20036;-72
2023/06/05 05:20:21;;;;;;;15.15;9.65;;;12.30;99.90;;;;;;4953751;28;20128;-74
2023/06/05 05:22:47;;;;;;;17.00;9.93;;;12.40;99.90;;;;;;4943959;28;20641;-74
2023/06/05 05:25:12;;;;;;;17.58;10.40;;;12.40;99.90;;;;;;4962416;29;20106;-73
2023/06/05 05:27:38;;;;;;;19.55;10.02;;;12.50;99.90;;;;;;4951704;28;20028;-73
2023/06/05 05:30:04;;;;;;;17.42;9.75;;;12.50;99.90;;;;;;4953868;29;20070;-74
2023/06/05 05:32:30;;;;;;;13.88;9.38;;;12.60;99.90;;;;;;4956255;29;20039;-74
2023/06/05 05:34:55;;;;;;;16.45;10.05;;;12.60;99.90;;;;;;4956034;29;20031;-73
2023/06/05 05:37:22;;;;;;;17.55;10.27;;;12.60;99.90;;;;;;4955728;28;20027;-73
2023/06/05 05:39:47;;;;;;;16.15;10.35;;;12.60;99.90;;;;;;4956122;28;20099;-74
2023/06/05 05:42:13;;;;;;;15.45;9.93;;;12.70;99.90;;;;;;4952997;28;20090;-74
2023/06/05 05:44:42;;;;;;;13.70;9.05;;;12.70;99.90;;;;;;4956439;29;20027;-73
2023/06/05 05:47:08;;;;;;;17.60;9.65;;;12.70;99.90;;;;;;4949623;29;20403;-74
2023/06/05 05:49:34;;;;;;;16.60;9.27;;;12.80;99.90;;;;;;4956061;29;20463;-73
2023/06/05 05:52:00;;;;;;;17.80;10.13;;;12.80;99.90;;;;;;4955635;29;20082;-73
2023/06/05 05:54:27;;;;;;;16.05;9.80;;;12.80;99.90;;;;;;4961645;28;20026;-73
2023/06/05 05:56:53;;;;;;;15.20;9.18;;;12.90;99.90;;;;;;4948646;29;20114;-72
2023/06/05 05:59:19;;;;;;;13.75;9.57;;;13.00;99.90;;;;;;4942753;29;20115;-73
2023/06/05 06:01:45;;;;;;;14.32;9.07;;;13.00;99.90;;;;;;4955829;28;20103;-74
2023/06/05 06:04:11;;;;;;;19.63;9.68;;;13.10;99.90;;;;;;4949682;28;20825;-73
2023/06/05 06:06:39;;;;;;;15.82;9.20;;;13.20;99.90;;;;;;4949766;29;20019;-74
2023/06/05 06:09:08;;;;;;;15.88;8.77;;;13.30;99.90;;;;;;4942604;28;20038;-74
2023/06/05 06:11:33;;;;;;;11.50;8.88;;;13.40;99.90;;;;;;4945665;29;20422;-74
2023/06/05 06:14:00;;;;;;;12.90;9.30;;;13.50;99.90;;;;;;4946450;28;20035;-74
2023/06/05 06:16:25;;;;;;;15.88;9.05;;;13.60;99.90;;;;;;4955525;28;20099;-74
2023/06/05 06:18:52;;;;;;;15.63;8.80;;;13.70;99.90;;;;;;4937855;28;20127;-74
2023/06/05 06:21:18;;;;;;;11.15;8.10;;;13.80;99.90;;;;;;4937518;29;20393;-74
2023/06/05 06:23:44;;;;;;;12.52;8.48;;;13.90;99.90;;;;;;4943236;29;20012;-73
2023/06/05 06:26:11;;;;;;;14.35;8.75;;;14.00;99.90;;;;;;4955101;29;20098;-74
2023/06/05 06:28:37;;;;;;;11.98;8.10;;;14.10;99.90;;;;;;4954701;28;20060;-73
2023/06/05 06:31:03;;;;;;;12.40;7.30;;;14.20;99.90;;;;;;4955290;28;20564;-74
2023/06/05 06:33:29;;;;;;;15.65;7.50;;;14.30;99.90;;;;;;4954921;28;20051;-74
2023/06/05 06:35:58;;;;;;;12.60;8.00;;;14.40;99.90;;;;;;4954355;29;20541;-73
2023/06/05 06:38:27;;;;;;;11.52;7.82;;;14.50;99.90;;;;;;4955428;28;20032;-74
2023/06/05 06:40:52;;;;;;;10.57;7.50;;;14.50;99.90;;;;;;4954626;29;20047;-73
2023/06/05 06:43:18;;;;;;;10.95;7.38;;;14.60;99.90;;;;;;4946342;29;20038;-74
2023/06/05 06:45:43;;;;;;;12.68;7.10;;;14.60;99.90;;;;;;4945126;28;20035;-73
2023/06/05 06:48:09;;;;;;;13.70;7.65;;;14.60;99.90;;;;;;4949437;29;20027;-74
2023/06/05 06:50:35;;;;;;;11.13;6.88;;;14.60;99.90;;;;;;4948873;29;20027;-74
2023/06/05 06:53:01;;;;;;;10.07;7.25;;;14.60;99.90;;;;;;4954497;28;20703;-74
2023/06/05 06:55:26;;;;;;;12.32;7.13;;;14.60;99.90;;;;;;4954545;28;20031;-73
2023/06/05 06:57:52;;;;;;;11.98;7.25;;;14.70;99.90;;;;;;4954276;29;20027;-74
2023/06/05 07:00:20;;;;;;;11.85;6.85;;;14.70;99.90;;;;;;4953783;28;20471;-74
2023/06/05 07:02:45;;;;;;;10.75;6.93;;;14.80;99.90;;;;;;4952607;29;20019;-74
2023/06/05 07:05:11;;;;;;;10.23;6.38;;;14.80;99.90;;;;;;4954695;29;20075;-74
2023/06/05 07:07:36;;;;;;;10.13;6.90;;;14.90;99.90;;;;;;4955293;28;20023;-73
2023/06/05 07:10:02;;;;;;;9.90;6.45;;;15.00;99.90;;;;;;4955288;29;20533;-74
2023/06/05 07:12:28;;;;;;;9.75;6.00;;;15.00;99.90;;;;;;4955313;29;20042;-73
2023/06/05 07:14:54;;;;;;;11.52;5.97;;;15.00;99.90;;;;;;4946054;28;20074;-73
2023/06/05 07:17:20;;;;;;;8.30;5.63;;;15.10;99.90;;;;;;4944921;29;20027;-74
2023/06/05 07:19:45;;;;;;;8.75;5.63;;;15.10;99.90;;;;;;4953300;28;20037;-73
2023/06/05 07:22:11;;;;;;;7.38;5.50;;;15.30;99.90;;;;;;4948639;29;20023;-73
2023/06/05 07:24:38;;;;;;;9.55;5.68;;;15.50;99.90;;;;;;4948865;29;20023;-74
2023/06/05 07:27:05;;;;;;;10.10;5.72;;;15.60;99.90;;;;;;4955201;28;20078;-73
2023/06/05 07:29:31;;;;;;;8.00;5.30;;;15.60;99.90;;;;;;4954971;28;20231;-74
2023/06/05 07:31:58;;;;;;;7.15;5.22;;;15.70;99.90;;;;;;4953063;29;20030;-74
2023/06/05 07:34:24;;;;;;;7.88;5.05;;;15.90;99.90;;;;;;4954815;29;20023;-74
2023/06/05 07:36:51;;;;;;;9.98;5.00;;;15.90;99.90;;;;;;4952762;28;20031;-73
2023/06/05 07:39:22;;;;;;;8.52;5.55;;;16.00;99.90;;;;;;4951587;28;20050;-74
2023/06/05 07:41:48;;;;;;;8.65;5.38;;;16.10;99.90;;;;;;4953701;29;20051;-74
2023/06/05 07:44:16;;;;;;;7.57;5.15;;;16.10;99.90;;;;;;4954988;28;20066;-73
2023/06/05 07:46:43;;;;;;;6.85;5.00;;;16.20;99.90;;;;;;4944851;29;20058;-74
2023/06/05 07:49:09;;;;;;;7.43;4.88;;;16.40;99.90;;;;;;4953517;28;20031;-74
2023/06/05 07:51:38;;;;;;;5.75;4.57;;;16.50;99.90;;;;;;4942806;29;20016;-74
2023/06/05 07:54:08;;;;;;;7.47;4.68;;;16.70;99.90;;;;;;4941669;29;20026;-74
2023/06/05 07:56:34;;;;;;;7.15;4.80;;;16.80;99.90;;;;;;4954665;28;20050;-73
2023/06/05 07:59:00;;;;;;;7.07;5.50;;;16.90;99.90;;;;;;4953368;28;20062;-74
2023/06/05 08:01:27;;;;;;;8.55;5.07;;;17.10;99.90;;;;;;4955218;29;20023;-74
2023/06/05 08:03:54;;;;;;;8.73;5.25;;;17.30;99.90;;;;;;4953115;28;20090;-73
2023/06/05 08:06:19;;;;;;;9.57;5.40;;;17.30;99.90;;;;;;4945397;29;20582;-74
2023/06/05 08:08:45;;;;;;;8.13;5.47;;;17.40;99.90;;;;;;4953844;28;20102;-73
2023/06/05 08:11:11;;;;;;;7.15;5.50;;;17.30;99.90;;;;;;4953360;29;20031;-73
2023/06/05 08:13:38;;;;;;;7.95;5.20;;;17.20;99.90;;;;;;4953701;29;20392;-73
2023/06/05 08:16:04;;;;;;;6.57;4.70;;;17.30;99.90;;;;;;4954169;28;20684;-74
2023/06/05 08:18:30;;;;;;;8.25;5.40;;;17.40;99.90;;;;;;4941361;28;20028;-73
2023/06/05 08:20:56;;;;;;;7.30;4.75;;;17.50;99.90;;;;;;4937525;29;20248;-73
2023/06/05 08:23:21;;;;;;;8.38;5.13;;;17.60;99.90;;;;;;4936965;29;20019;-72
2023/06/05 08:25:48;;;;;;;9.43;4.88;;;17.70;99.90;;;;;;4945115;29;20051;-72
2023/06/05 08:28:17;;;;;;;7.63;5.07;;;17.70;99.90;;;;;;4954087;29;20023;-73
2023/06/05 08:30:44;;;;;;;7.47;5.20;;;17.70;99.90;;;;;;4950573;28;20059;-73
2023/06/05 08:33:10;;;;;;;8.85;5.28;;;17.70;99.90;;;;;;4945732;29;20035;-75
2023/06/05 08:35:35;;;;;;;8.18;5.05;;;17.70;99.90;;;;;;4952742;29;20554;-73
2023/06/05 08:38:03;;;;;;;8.27;5.10;;;17.70;99.90;;;;;;4951988;29;20518;-73
2023/06/05 08:40:29;;;;;;;8.40;4.82;;;17.90;99.90;;;;;;4953222;29;20052;-73
2023/06/05 08:42:56;;;;;;;8.38;4.88;;;18.10;99.90;;;;;;4953266;28;20026;-73
2023/06/05 08:45:22;;;;;;;7.22;4.60;;;18.30;99.90;;;;;;4945047;28;20024;-73
2023/06/05 08:47:52;;;;;;;7.95;4.72;;;18.40;99.90;;;;;;4952278;29;20093;-73
2023/06/05 08:50:17;;;;;;;6.13;4.70;;;18.60;99.90;;;;;;4943830;28;20024;-74
2023/06/05 08:52:46;;;;;;;9.50;4.28;;;18.60;99.90;;;;;;4954003;29;20023;-73
2023/06/05 08:55:12;;;;;;;10.25;4.68;;;18.60;99.90;;;;;;4957034;28;20115;-73
2023/06/05 08:57:41;;;;;;;6.85;4.38;;;18.60;99.90;;;;;;4956519;29;20471;-73
2023/06/05 09:00:10;;;;;;;7.72;4.55;;;18.60;99.90;;;;;;4956531;28;20125;-73
2023/06/05 09:02:43;;;;;;;6.25;4.72;;;18.70;99.90;;;;;;4955171;29;20031;-73
2023/06/05 09:05:09;;;;;;;7.82;4.97;;;18.70;99.90;;;;;;4952972;29;20031;-73
2023/06/05 09:07:36;;;;;;;6.13;4.25;;;18.90;99.90;;;;;;4947197;28;20016;-73
2023/06/05 09:10:03;;;;;;;6.55;3.70;;;19.00;99.90;;;;;;4944155;29;20030;-73
2023/06/05 09:12:29;;;;;;;6.13;3.80;;;19.30;99.90;;;;;;4944882;28;20019;-73
2023/06/05 09:14:55;;;;;;;6.68;3.80;;;19.40;99.90;;;;;;4955135;29;20031;-73
2023/06/05 09:17:22;;;;;;;7.03;4.57;;;19.50;99.90;;;;;;4951113;29;20044;-73
2023/06/05 09:19:48;;;;;;;6.82;3.92;;;19.70;99.90;;;;;;4943584;29;20039;-73
2023/06/05 09:22:15;;;;;;;6.18;4.65;;;19.70;99.90;;;;;;4948389;28;20027;-73
2023/06/05 09:24:42;;;;;;;8.25;4.72;;;19.80;99.90;;;;;;4950549;29;20031;-73
2023/06/05 09:27:10;;;;;;;6.68;4.82;;;19.80;99.90;;;;;;4951558;28;20712;-73
2023/06/05 09:29:43;;;;;;;7.43;4.85;;;20.00;99.90;;;;;;4945299;28;20034;-73
2023/06/05 09:32:20;;;;;;;10.45;5.03;;;19.80;99.90;;;;;;4953073;29;20046;-73
2023/06/05 09:34:53;;;;;;;6.78;4.50;;;19.80;99.90;;;;;;4957574;28;20375;-73
2023/06/05 09:37:38;;;;;;;7.80;4.88;;;19.90;99.90;;;;;;4956943;29;20032;-73
2023/06/05 09:40:05;;;;;;;8.75;4.60;;;20.00;99.90;;;;;;4957148;29;20051;-73
2023/06/05 09:42:32;;;;;;;9.32;4.65;;;20.10;99.90;;;;;;4955194;28;20027;-73
2023/06/05 09:44:59;;;;;;;5.75;4.38;;;20.20;99.90;;;;;;4951211;28;20490;-73
2023/06/05 09:47:25;;;;;;;8.23;5.10;;;20.30;99.90;;;;;;4949867;29;20463;-74
2023/06/05 09:49:51;;;;;;;6.55;4.75;;;20.30;99.90;;;;;;4945576;28;20079;-74
2023/06/05 09:52:17;;;;;;;8.55;4.60;;;20.20;99.90;;;;;;4944663;28;20039;-72
2023/06/05 09:54:44;;;;;;;9.90;5.03;;;20.20;99.90;;;;;;4956935;29;20122;-72
2023/06/05 09:57:13;;;;;;;9.85;4.70;;;20.30;99.90;;;;;;4955486;28;20459;-72
2023/06/05 09:59:53;;;;;;;8.40;5.18;;;20.50;99.90;;;;;;4956483;28;20023;-73
2023/06/05 10:02:20;;;;;;;8.85;5.32;;;20.70;99.90;;;;;;4949665;28;20075;-73
2023/06/05 10:04:49;;;;;;;7.07;5.68;;;20.80;99.90;;;;;;4954645;29;20103;-73
2023/06/05 10:07:15;;;;;;;8.70;5.22;;;20.80;99.90;;;;;;4953790;28;20094;-73
2023/06/05 10:09:42;;;;;;;7.32;5.07;;;20.70;99.90;;;;;;4954023;29;20090;-74
2023/06/05 10:12:08;;;;;;;6.78;4.82;;;20.80;99.90;;;;;;4956765;29;20030;-73
2023/06/05 10:14:40;;;;;;;10.43;5.40;;;21.10;99.70;;;;;;4948529;28;20036;-73
2023/06/05 10:17:06;;;;;;;11.70;5.05;;;21.20;99.20;;;;;;4949812;29;20403;-71
2023/06/05 10:19:32;;;;;;;7.25;4.80;;;21.30;98.90;;;;;;4952077;29;20039;-73
2023/06/05 10:21:58;;;;;;;8.38;5.35;;;21.40;98.50;;;;;;4955174;28;20041;-73
2023/06/05 10:24:46;;;;;;;8.48;5.28;;;21.50;98.00;;;;;;4954036;28;20031;-73
2023/06/05 10:27:56;;;;;;;8.23;5.03;;;21.60;97.50;;;;;;4952329;28;20086;-73
2023/06/05 10:30:53;;;;;;;8.10;5.63;;;21.60;96.70;;;;;;4953783;28;20066;-73
2023/06/05 10:33:37;;;;;;;10.38;5.35;;;21.70;96.30;;;;;;4945673;29;20447;-73
2023/06/05 10:36:05;;;;;;;9.75;5.82;;;21.60;95.40;;;;;;4941418;29;20023;-74
2023/06/05 10:38:33;;;;;;;9.80;5.63;;;21.30;95.90;;;;;;4952595;29;20027;-73
2023/06/05 10:41:00;;;;;;;12.48;5.72;;;21.40;95.90;;;;;;4951981;29;20051;-74
2023/06/05 10:43:36;;;;;;;8.90;4.97;;;21.40;95.80;;;;;;4948958;29;20070;-73
2023/06/05 10:46:34;;;;;;;8.88;5.10;;;21.40;95.70;;;;;;4948921;29;20030;-74
2023/06/05 10:49:11;;;;;;;9.63;4.70;;;21.60;95.00;;;;;;4948389;29;20027;-74
2023/06/05 10:51:46;;;;;;;8.77;5.47;;;21.70;95.20;;;;;;4949684;29;20027;-74
2023/06/05 10:54:16;;;;;;;;;;;21.90;94.20;;;;;;4954086;29;20054;-73
2023/06/05 10:56:51;;;;;;;7.50;4.70;;;21.90;93.20;;;;;;4951902;28;19914;-72
2023/06/05 10:59:20;;;;;;;8.30;5.30;;;22.00;94.10;;;;;;4952761;29;20032;-73
2023/06/05 11:04:46;;;;;;;9.23;5.35;;;22.10;93.40;;;;;;4947737;29;20020;-74
2023/06/05 11:07:18;;;;;;;9.77;5.25;;;22.20;91.90;;;;;;4944674;29;20081;-73
2023/06/05 11:10:03;;;;;;;12.13;5.75;;;22.10;92.70;;;;;;4951692;29;20054;-73
2023/06/05 11:12:43;;;;;;;9.52;5.40;;;22.10;91.90;;;;;;4954443;29;20691;-72
2023/06/05 11:15:33;;;;;;;10.55;6.20;;;22.10;92.70;;;;;;4950944;28;20476;-73
2023/06/05 11:18:32;;;;;;;11.32;6.00;;;22.10;91.60;;;;;;4949653;29;20020;-73
2023/06/05 11:20:59;;;;;;;8.65;6.22;;;22.10;91.90;;;;;;4947729;29;20023;-73
2023/06/05 11:23:29;;;;;;;7.50;5.22;;;22.20;92.00;;;;;;4945322;29;20019;-73
2023/06/05 11:25:59;;;;;;;6.82;4.30;;;22.10;92.30;;;;;;4952291;29;20034;-73
2023/06/05 11:28:46;;;;;;;7.32;4.30;;;22.10;93.70;;;;;;4951959;29;20106;-76
2023/06/05 11:31:12;;;;;;;6.57;4.65;;;22.10;94.30;;;;;;4951291;28;20054;-76
2023/06/05 11:33:38;;;;;;;7.78;4.93;;;22.00;94.70;;;;;;4955538;28;20046;-76
2023/06/05 11:36:11;;;;;;;10.57;4.60;;;22.10;94.80;;;;;;4955672;28;20019;-76
2023/06/05 11:38:37;;;;;;;9.00;4.32;;;22.20;94.70;;;;;;4950674;29;20031;-77
2023/06/05 11:41:09;;;;;;;10.18;4.70;;;22.20;94.40;;;;;;4953704;28;20113;-77
2023/06/05 11:43:42;;;;;;;9.63;4.82;;;22.10;94.30;;;;;;4946852;29;20063;-77
2023/06/05 11:46:08;;;;;;;9.48;4.22;;;21.90;94.50;;;;;;4955299;29;20098;-77
2023/06/05 11:48:33;;;;;;;10.68;4.65;;;21.70;95.20;;;;;;4947275;29;20122;-77
2023/06/05 11:51:05;;;;;;;8.25;4.35;;;21.60;95.60;;;;;;4953286;29;20498;-77
2023/06/05 11:53:32;;;;;;;8.73;4.43;;;21.50;95.90;;;;;;4953870;28;20023;-77
2023/06/05 11:58:32;;;;;;;9.40;4.32;;;21.60;96.10;;;;;;4954185;28;20035;-76
2023/06/05 12:01:14;;;;;;;10.43;3.85;;;21.70;96.10;;;;;;4954873;28;20023;-76
2023/06/05 12:03:41;;;;;;;8.30;4.10;;;21.90;95.60;;;;;;4955228;28;20497;-76
2023/06/05 12:06:07;;;;;;;9.65;4.00;;;21.70;95.70;;;;;;4947297;28;20026;-77
2023/06/05 12:08:34;;;;;;;12.27;4.00;;;21.60;96.00;;;;;;4954101;28;20147;-77
2023/06/05 12:11:02;;;;;;;9.10;3.97;;;21.40;96.30;;;;;;4955975;29;20031;-78
2023/06/05 12:13:53;;;;;;;8.10;4.15;;;21.30;97.00;;;;;;4955674;28;20102;-76
2023/06/05 12:16:28;;;;;;;14.35;4.97;;;21.20;97.30;;;;;;4940485;28;20110;-76
2023/06/05 12:18:55;;;;;;;;;;;21.20;97.30;;;;;;4948816;28;20063;-75
2023/06/05 12:21:22;;;;;;;9.45;3.75;;;21.50;97.30;;;;;;4943384;28;19997;-77
2023/06/05 12:23:48;;;;;;;13.02;4.47;;;21.40;97.20;;;;;;4956064;28;20028;-77
2023/06/05 12:26:15;;;;;;;8.07;4.07;;;21.50;97.30;;;;;;4952365;29;20078;-77
2023/06/05 12:28:42;;;;;;;9.98;4.80;;;21.50;97.20;;;;;;4954432;29;20019;-78
2023/06/05 12:31:08;;;;;;;11.65;4.28;;;21.40;97.00;;;;;;4943956;28;20399;-77
2023/06/05 12:33:48;;;;;;;11.23;4.30;;;21.40;97.30;;;;;;4954214;28;20015;-77
2023/06/05 12:36:15;;;;;;;8.80;3.92;;;21.30;97.70;;;;;;4941312;28;20020;-77
2023/06/05 12:38:44;;;;;;;7.68;3.63;;;21.40;98.00;;;;;;4953311;29;20031;-77
2023/06/05 12:41:10;;;;;;;9.25;3.60;;;21.60;97.70;;;;;;4953196;28;20047;-77
2023/06/05 12:43:36;;;;;;;8.10;4.18;;;21.60;97.30;;;;;;4946393;28;20025;-76
2023/06/05 12:46:02;;;;;;;12.00;4.30;;;21.50;96.90;;;;;;4953709;29;20027;-77
2023/06/05 12:48:28;;;;;;;9.20;4.25;;;21.40;97.50;;;;;;4951615;28;20066;-77
2023/06/05 12:50:56;;;;;;;6.88;4.03;;;21.60;97.60;;;;;;4955119;29;20031;-77